PWSweather.com
Personal Weather Stations
Station Observations
RHPWSHOR1
Lostock, BoltonGB

LostockBoltonGB

Lat: 53.58073044, Lon: -2.52344131

Elevation: 389

Station Type: Oregon Scientific WMR100

Latest ConditionsUpdated 11:01:15 PM GMT Friday, Sep 4, 2015
Currently Today's Max Today's Min Today's Average
Temperature 56.8°F13.8°C 57.6°F14.2°C 56.8°F13.8°C 57.2°F14.0°C
Dew Point 38.4°F3.6°C 40.7°F4.8°C 35.9°F2.2°C 39.3°F4.1°C
Winds 3.6 mph SSW5.8 kmh SSW 4.3 mph WSW6.9 kmh WSW - 2.6 mph 4.2 kmh
Wind Gusts 3.6 mph5.8 kmh 4.3 mph6.9 kmh - -
Humidity 50% 54% 45% 51%
Pressure 29.47 in998.0 mb 29.47 in998.0 mb 29.41 in995.9 mb -
Hour Temp Dew Point Humidity Winds Wind Gusts Pressure Precip Precip Rate Daily Precip Total
11:01 PM 56.8°F13.8°C 38.4°F3.6°C 50% 3.6 mph SSW5.8 kmh SSW 3.6 mph5.8 kmh 29.47 in998.0 mb 0.00 in0.0 mm 0.00 in0.0 mm 0.00 in0.0 mm
10:54 PM 56.8°F13.8°C 38.4°F3.6°C 50% 1.3 mph WSW2.1 kmh WSW 1.3 mph2.1 kmh 29.47 in998.0 mb 0.00 in0.0 mm 0.00 in0.0 mm 0.00 in0.0 mm
10:47 PM 57.0°F13.9°C 39.1°F3.9°C 51% 2.0 mph W3.2 kmh W 2.0 mph3.2 kmh 29.47 in998.0 mb 0.00 in0.0 mm 0.00 in0.0 mm 0.00 in0.0 mm
10:40 PM 57.0°F13.9°C 39.6°F4.2°C 52% 2.0 mph W3.2 kmh W 2.0 mph3.2 kmh 29.47 in998.0 mb 0.00 in0.0 mm 0.00 in0.0 mm 0.00 in0.0 mm
10:33 PM 57.2°F14.0°C 39.8°F4.3°C 52% 2.0 mph WNW3.2 kmh WNW 2.0 mph3.2 kmh 29.47 in998.0 mb 0.00 in0.0 mm 0.00 in0.0 mm 0.00 in0.0 mm
10:26 PM 57.2°F14.0°C 39.8°F4.3°C 52% 2.2 mph WNW3.5 kmh WNW 2.2 mph3.5 kmh 29.47 in998.0 mb 0.00 in0.0 mm 0.00 in0.0 mm 0.00 in0.0 mm
10:19 PM 57.2°F14.0°C 39.8°F4.3°C 52% 2.0 mph WNW3.2 kmh WNW 2.0 mph3.2 kmh 29.47 in998.0 mb 0.00 in0.0 mm 0.00 in0.0 mm 0.00 in0.0 mm
10:12 PM 57.2°F14.0°C 39.8°F4.3°C 52% 2.0 mph WNW3.2 kmh WNW 2.0 mph3.2 kmh 29.47 in998.0 mb 0.00 in0.0 mm 0.00 in0.0 mm 0.00 in0.0 mm
10:05 PM 57.2°F14.0°C 39.8°F4.3°C 52% 2.2 mph WNW3.5 kmh WNW 2.2 mph3.5 kmh 29.47 in998.0 mb 0.00 in0.0 mm 0.00 in0.0 mm 0.00 in0.0 mm
09:58 PM 57.2°F14.0°C 39.8°F4.3°C 52% 1.1 mph E1.8 kmh E 1.1 mph1.8 kmh 29.47 in998.0 mb 0.00 in0.0 mm 0.00 in0.0 mm 0.00 in0.0 mm
09:51 PM 57.2°F14.0°C 39.8°F4.3°C 52% 3.6 mph WNW5.8 kmh WNW 3.6 mph5.8 kmh 29.47 in998.0 mb 0.00 in0.0 mm 0.00 in0.0 mm 0.00 in0.0 mm
09:44 PM 57.2°F14.0°C 40.2°F4.6°C 53% 2.0 mph WNW3.2 kmh WNW 2.0 mph3.2 kmh 29.47 in998.0 mb 0.00 in0.0 mm 0.00 in0.0 mm 0.00 in0.0 mm
09:37 PM 57.2°F14.0°C 40.2°F4.6°C 53% 2.7 mph ESE4.3 kmh ESE 2.7 mph4.3 kmh 29.47 in998.0 mb 0.00 in0.0 mm 0.00 in0.0 mm 0.00 in0.0 mm
09:30 PM 57.2°F14.0°C 40.7°F4.8°C 54% 2.2 mph WNW3.5 kmh WNW 2.2 mph3.5 kmh 29.44 in997.0 mb 0.00 in0.0 mm 0.00 in0.0 mm 0.00 in0.0 mm
09:23 PM 57.2°F14.0°C 40.7°F4.8°C 54% 3.4 mph WNW5.5 kmh WNW 3.8 mph6.1 kmh 29.44 in997.0 mb 0.00 in0.0 mm 0.00 in0.0 mm 0.00 in0.0 mm
09:16 PM 57.2°F14.0°C 40.7°F4.8°C 54% 3.6 mph WSW5.8 kmh WSW 3.6 mph5.8 kmh 29.44 in997.0 mb 0.00 in0.0 mm 0.00 in0.0 mm 0.00 in0.0 mm
09:08 PM 57.4°F14.1°C 40.4°F4.7°C 53% 2.5 mph W4.0 kmh W 2.5 mph4.0 kmh 29.44 in997.0 mb 0.00 in0.0 mm 0.00 in0.0 mm 0.00 in0.0 mm
09:00 PM 57.4°F14.1°C 40.4°F4.7°C 53% 4.0 mph NNW6.4 kmh NNW 4.0 mph6.4 kmh 29.44 in997.0 mb 0.00 in0.0 mm 0.00 in0.0 mm 0.00 in0.0 mm
08:52 PM 57.4°F14.1°C 39.9°F4.4°C 52% 2.7 mph WNW4.3 kmh WNW 2.7 mph4.3 kmh 29.44 in997.0 mb 0.00 in0.0 mm 0.00 in0.0 mm 0.00 in0.0 mm
08:44 PM 57.6°F14.2°C 39.1°F3.9°C 50% 2.7 mph WNW4.3 kmh WNW 2.7 mph4.3 kmh 29.44 in997.0 mb 0.00 in0.0 mm 0.00 in0.0 mm 0.00 in0.0 mm
08:36 PM 57.6°F14.2°C 39.1°F3.9°C 50% 2.7 mph WNW4.3 kmh WNW 2.7 mph4.3 kmh 29.44 in997.0 mb 0.00 in0.0 mm 0.00 in0.0 mm 0.00 in0.0 mm
08:29 PM 57.6°F14.2°C 38.0°F3.3°C 48% 1.3 mph WNW2.1 kmh WNW 1.3 mph2.1 kmh 29.44 in997.0 mb 0.00 in0.0 mm 0.00 in0.0 mm 0.00 in0.0 mm
08:22 PM 57.6°F14.2°C 38.6°F3.7°C 49% 2.7 mph WSW4.3 kmh WSW 2.7 mph4.3 kmh 29.44 in997.0 mb 0.00 in0.0 mm 0.00 in0.0 mm 0.00 in0.0 mm
08:15 PM 57.6°F14.2°C 38.6°F3.7°C 49% 3.1 mph WSW5.0 kmh WSW 3.1 mph5.0 kmh 29.41 in995.9 mb 0.00 in0.0 mm 0.00 in0.0 mm 0.00 in0.0 mm
08:08 PM 57.4°F14.1°C 37.3°F2.9°C 47% 3.1 mph WSW5.0 kmh WSW 3.1 mph5.0 kmh 29.41 in995.9 mb 0.00 in0.0 mm 0.00 in0.0 mm 0.00 in0.0 mm
08:01 PM 57.2°F14.0°C 36.6°F2.6°C 46% 2.7 mph WSW4.3 kmh WSW 2.7 mph4.3 kmh 29.41 in995.9 mb 0.00 in0.0 mm 0.00 in0.0 mm 0.00 in0.0 mm
07:54 PM 57.0°F13.9°C 35.9°F2.2°C 45% 4.3 mph WSW6.9 kmh WSW 4.3 mph6.9 kmh 29.41 in995.9 mb 0.00 in0.0 mm 0.00 in0.0 mm 0.00 in0.0 mm